Terminal Aerodrome Forecast
Issued by NWS Tampa Bay Area, FL

Home | Current Version | Previous Version | Text Only | Print | Product List | Glossary On
Versions: 1 2 3 4 5 6 7 8 9 10 11 12 13
054
FTUS42 KTBW 232341
TAFSRQ
TAF
KSRQ 232341Z 2400/2424 30007KT P6SM SCT060
     FM240100 09005KT P6SM FEW050
     FM241400 13008KT P6SM SCT025
     FM241900 25008KT P6SM BKN045=

USA.gov is the U.S. government's official web portal to all federal, state and local government web resources and services.